Terminal Aerodrome Forecast
Issued by NWS

Home | Current Version | Previous Version | Text Only | Print | Product List | Glossary On
Versions: 1 2 3 4 5 6 7 8 9 10 11 12 13 14 15 16 17 18
284
FTUS43 KICT 222338
TAFSLN
TAF
KSLN 222338Z 2300/2324 16017G24KT P6SM BKN040
     FM230800 16014G20KT P6SM OVC025
     FM231600 17016G23KT P6SM BKN035=

USA.gov is the U.S. government's official web portal to all federal, state and local government web resources and services.